sensor_id;sensor_type;location;lat;lon;timestamp;temperature;humidity
69626;DHT22;56847;51.984;5.088;2022-11-20T00:01:21;2.60;69.00
69626;DHT22;56847;51.984;5.088;2022-11-20T00:03:49;2.60;68.90
69626;DHT22;56847;51.984;5.088;2022-11-20T00:06:18;2.50;68.90
69626;DHT22;56847;51.984;5.088;2022-11-20T00:08:46;2.50;68.90
69626;DHT22;56847;51.984;5.088;2022-11-20T00:11:18;2.50;68.90
69626;DHT22;56847;51.984;5.088;2022-11-20T00:13:47;2.50;69.00
69626;DHT22;56847;51.984;5.088;2022-11-20T00:16:18;2.50;69.10
69626;DHT22;56847;51.984;5.088;2022-11-20T00:18:46;2.50;69.10
69626;DHT22;56847;51.984;5.088;2022-11-20T00:21:19;2.50;69.10
69626;DHT22;56847;51.984;5.088;2022-11-20T00:23:48;2.50;69.10
69626;DHT22;56847;51.984;5.088;2022-11-20T00:26:17;2.50;69.00
69626;DHT22;56847;51.984;5.088;2022-11-20T00:28:49;2.50;69.00
69626;DHT22;56847;51.984;5.088;2022-11-20T00:31:19;2.50;69.10
69626;DHT22;56847;51.984;5.088;2022-11-20T00:34:00;2.50;69.20
69626;DHT22;56847;51.984;5.088;2022-11-20T00:36:32;2.40;69.10
69626;DHT22;56847;51.984;5.088;2022-11-20T00:39:02;2.40;69.10
69626;DHT22;56847;51.984;5.088;2022-11-20T00:41:32;2.40;69.20
69626;DHT22;56847;51.984;5.088;2022-11-20T00:44:05;2.40;69.20
69626;DHT22;56847;51.984;5.088;2022-11-20T00:46:36;2.40;69.20
69626;DHT22;56847;51.984;5.088;2022-11-20T00:49:08;2.40;69.20
69626;DHT22;56847;51.984;5.088;2022-11-20T00:51:41;2.40;69.40
69626;DHT22;56847;51.984;5.088;2022-11-20T00:54:21;2.40;69.30
69626;DHT22;56847;51.984;5.088;2022-11-20T00:56:55;2.40;69.30
69626;DHT22;56847;51.984;5.088;2022-11-20T00:59:23;2.30;69.40
69626;DHT22;56847;51.984;5.088;2022-11-20T01:01:54;2.30;69.30
69626;DHT22;56847;51.984;5.088;2022-11-20T01:04:24;2.30;69.30
69626;DHT22;56847;51.984;5.088;2022-11-20T01:06:53;2.40;69.40
69626;DHT22;56847;51.984;5.088;2022-11-20T01:09:31;2.30;69.30
69626;DHT22;56847;51.984;5.088;2022-11-20T01:12:02;2.30;69.30
69626;DHT22;56847;51.984;5.088;2022-11-20T01:14:42;2.30;69.30
69626;DHT22;56847;51.984;5.088;2022-11-20T01:17:15;2.30;69.30
69626;DHT22;56847;51.984;5.088;2022-11-20T01:19:49;2.30;69.40
69626;DHT22;56847;51.984;5.088;2022-11-20T01:22:23;2.30;69.40
69626;DHT22;56847;51.984;5.088;2022-11-20T01:24:54;2.30;69.40
69626;DHT22;56847;51.984;5.088;2022-11-20T01:27:25;2.30;69.40
69626;DHT22;56847;51.984;5.088;2022-11-20T01:29:55;2.30;69.40
69626;DHT22;56847;51.984;5.088;2022-11-20T01:32:32;2.30;69.40
69626;DHT22;56847;51.984;5.088;2022-11-20T01:35:14;2.20;69.40
69626;DHT22;56847;51.984;5.088;2022-11-20T01:37:59;2.20;69.50
69626;DHT22;56847;51.984;5.088;2022-11-20T01:40:30;2.20;69.50
69626;DHT22;56847;51.984;5.088;2022-11-20T01:43:14;2.20;69.60
69626;DHT22;56847;51.984;5.088;2022-11-20T01:46:12;2.10;69.70
69626;DHT22;56847;51.984;5.088;2022-11-20T01:51:25;2.10;69.90
69626;DHT22;56847;51.984;5.088;2022-11-20T01:53:55;2.10;70.00
69626;DHT22;56847;51.984;5.088;2022-11-20T01:56:26;2.10;70.00
69626;DHT22;56847;51.984;5.088;2022-11-20T01:58:57;2.10;70.10
69626;DHT22;56847;51.984;5.088;2022-11-20T02:01:27;2.10;70.30
69626;DHT22;56847;51.984;5.088;2022-11-20T02:03:58;2.10;70.30
69626;DHT22;56847;51.984;5.088;2022-11-20T02:06:44;2.10;70.20
69626;DHT22;56847;51.984;5.088;2022-11-20T02:09:14;2.10;70.10
69626;DHT22;56847;51.984;5.088;2022-11-20T02:11:45;2.10;70.30
69626;DHT22;56847;51.984;5.088;2022-11-20T02:14:14;2.10;70.30
69626;DHT22;56847;51.984;5.088;2022-11-20T02:16:46;2.10;70.40
69626;DHT22;56847;51.984;5.088;2022-11-20T02:19:28;2.10;70.40
69626;DHT22;56847;51.984;5.088;2022-11-20T02:22:20;2.10;70.20
69626;DHT22;56847;51.984;5.088;2022-11-20T02:24:57;2.10;70.20
69626;DHT22;56847;51.984;5.088;2022-11-20T02:27:26;2.10;70.20
69626;DHT22;56847;51.984;5.088;2022-11-20T02:30:03;2.10;70.10
69626;DHT22;56847;51.984;5.088;2022-11-20T02:32:34;2.00;70.10
69626;DHT22;56847;51.984;5.088;2022-11-20T02:37:58;2.00;69.80
69626;DHT22;56847;51.984;5.088;2022-11-20T02:40:27;2.00;70.00
69626;DHT22;56847;51.984;5.088;2022-11-20T02:42:56;2.00;70.20
69626;DHT22;56847;51.984;5.088;2022-11-20T02:45:30;1.90;70.30
69626;DHT22;56847;51.984;5.088;2022-11-20T02:48:13;1.90;70.40
69626;DHT22;56847;51.984;5.088;2022-11-20T02:50:41;1.90;70.20
69626;DHT22;56847;51.984;5.088;2022-11-20T02:53:12;1.90;70.10
69626;DHT22;56847;51.984;5.088;2022-11-20T02:55:43;1.90;70.20
69626;DHT22;56847;51.984;5.088;2022-11-20T02:58:33;1.90;70.40
69626;DHT22;56847;51.984;5.088;2022-11-20T03:01:19;1.90;70.50
69626;DHT22;56847;51.984;5.088;2022-11-20T03:07:14;1.90;70.40
69626;DHT22;56847;51.984;5.088;2022-11-20T03:10:43;1.90;70.30
69626;DHT22;56847;51.984;5.088;2022-11-20T03:13:50;1.90;70.20
69626;DHT22;56847;51.984;5.088;2022-11-20T03:16:21;1.80;70.40
69626;DHT22;56847;51.984;5.088;2022-11-20T03:18:51;1.80;70.40
69626;DHT22;56847;51.984;5.088;2022-11-20T03:21:33;1.80;70.40
69626;DHT22;56847;51.984;5.088;2022-11-20T03:24:01;1.80;70.50
69626;DHT22;56847;51.984;5.088;2022-11-20T03:27:09;1.80;70.50
69626;DHT22;56847;51.984;5.088;2022-11-20T03:30:17;1.80;70.60
69626;DHT22;56847;51.984;5.088;2022-11-20T03:33:28;1.80;70.50
69626;DHT22;56847;51.984;5.088;2022-11-20T03:36:47;1.80;70.40
69626;DHT22;56847;51.984;5.088;2022-11-20T03:39:50;1.70;70.50
69626;DHT22;56847;51.984;5.088;2022-11-20T03:42:39;1.70;70.60
69626;DHT22;56847;51.984;5.088;2022-11-20T03:45:35;1.70;70.70
69626;DHT22;56847;51.984;5.088;2022-11-20T03:48:15;1.70;70.70
69626;DHT22;56847;51.984;5.088;2022-11-20T03:51:12;1.70;70.60
69626;DHT22;56847;51.984;5.088;2022-11-20T03:53:42;1.70;70.60
69626;DHT22;56847;51.984;5.088;2022-11-20T03:56:35;1.70;70.70
69626;DHT22;56847;51.984;5.088;2022-11-20T03:59:10;1.70;70.70
69626;DHT22;56847;51.984;5.088;2022-11-20T04:01:47;1.70;70.80
69626;DHT22;56847;51.984;5.088;2022-11-20T04:04:17;1.70;70.80
69626;DHT22;56847;51.984;5.088;2022-11-20T04:07:00;1.70;70.80
69626;DHT22;56847;51.984;5.088;2022-11-20T04:09:30;1.60;71.00
69626;DHT22;56847;51.984;5.088;2022-11-20T04:11:59;1.70;71.10
69626;DHT22;56847;51.984;5.088;2022-11-20T04:14:30;1.70;71.10
69626;DHT22;56847;51.984;5.088;2022-11-20T04:17:06;1.60;71.10
69626;DHT22;56847;51.984;5.088;2022-11-20T04:19:44;1.60;71.20
69626;DHT22;56847;51.984;5.088;2022-11-20T04:22:24;1.60;71.10
69626;DHT22;56847;51.984;5.088;2022-11-20T04:25:04;1.70;71.10
69626;DHT22;56847;51.984;5.088;2022-11-20T04:27:36;1.60;71.10
69626;DHT22;56847;51.984;5.088;2022-11-20T04:30:12;1.70;71.20
69626;DHT22;56847;51.984;5.088;2022-11-20T04:32:51;1.60;71.20
69626;DHT22;56847;51.984;5.088;2022-11-20T04:35:22;1.60;71.10
69626;DHT22;56847;51.984;5.088;2022-11-20T04:37:54;1.60;71.20
69626;DHT22;56847;51.984;5.088;2022-11-20T04:40:31;1.60;71.30
69626;DHT22;56847;51.984;5.088;2022-11-20T04:43:03;1.60;71.30
69626;DHT22;56847;51.984;5.088;2022-11-20T04:45:52;1.60;71.30
69626;DHT22;56847;51.984;5.088;2022-11-20T04:48:28;1.60;71.40
69626;DHT22;56847;51.984;5.088;2022-11-20T04:51:05;1.60;71.40
69626;DHT22;56847;51.984;5.088;2022-11-20T04:56:38;1.60;71.30
69626;DHT22;56847;51.984;5.088;2022-11-20T04:59:18;1.60;71.40
69626;DHT22;56847;51.984;5.088;2022-11-20T05:01:51;1.60;71.40
69626;DHT22;56847;51.984;5.088;2022-11-20T05:04:25;1.60;71.40
69626;DHT22;56847;51.984;5.088;2022-11-20T05:06:53;1.70;71.40
69626;DHT22;56847;51.984;5.088;2022-11-20T05:09:27;1.70;71.40
69626;DHT22;56847;51.984;5.088;2022-11-20T05:11:54;1.60;71.30
69626;DHT22;56847;51.984;5.088;2022-11-20T05:14:21;1.70;71.40
69626;DHT22;56847;51.984;5.088;2022-11-20T05:16:49;1.70;71.40
69626;DHT22;56847;51.984;5.088;2022-11-20T05:19:19;1.60;71.50
69626;DHT22;56847;51.984;5.088;2022-11-20T05:21:46;1.70;71.40
69626;DHT22;56847;51.984;5.088;2022-11-20T05:24:14;1.60;71.40
69626;DHT22;56847;51.984;5.088;2022-11-20T05:26:42;1.60;71.40
69626;DHT22;56847;51.984;5.088;2022-11-20T05:29:11;1.60;71.50
69626;DHT22;56847;51.984;5.088;2022-11-20T05:31:40;1.60;71.50
69626;DHT22;56847;51.984;5.088;2022-11-20T05:34:10;1.60;71.60
69626;DHT22;56847;51.984;5.088;2022-11-20T05:36:38;1.60;71.60
69626;DHT22;56847;51.984;5.088;2022-11-20T05:39:05;1.60;71.60
69626;DHT22;56847;51.984;5.088;2022-11-20T05:41:34;1.60;71.60
69626;DHT22;56847;51.984;5.088;2022-11-20T05:44:04;1.60;71.40
69626;DHT22;56847;51.984;5.088;2022-11-20T05:46:32;1.50;71.60
69626;DHT22;56847;51.984;5.088;2022-11-20T05:48:59;1.50;71.80
69626;DHT22;56847;51.984;5.088;2022-11-20T05:51:27;1.50;71.90
69626;DHT22;56847;51.984;5.088;2022-11-20T05:53:56;1.50;71.90
69626;DHT22;56847;51.984;5.088;2022-11-20T05:56:24;1.50;72.00
69626;DHT22;56847;51.984;5.088;2022-11-20T05:58:51;1.50;72.00
69626;DHT22;56847;51.984;5.088;2022-11-20T06:01:31;1.50;72.00
69626;DHT22;56847;51.984;5.088;2022-11-20T06:03:58;1.50;72.10
69626;DHT22;56847;51.984;5.088;2022-11-20T06:06:26;1.60;72.10
69626;DHT22;56847;51.984;5.088;2022-11-20T06:08:54;1.60;72.10
69626;DHT22;56847;51.984;5.088;2022-11-20T06:11:21;1.60;72.20
69626;DHT22;56847;51.984;5.088;2022-11-20T06:13:52;1.70;72.20
69626;DHT22;56847;51.984;5.088;2022-11-20T06:16:19;1.70;72.20
69626;DHT22;56847;51.984;5.088;2022-11-20T06:18:47;1.70;72.10
69626;DHT22;56847;51.984;5.088;2022-11-20T06:21:18;1.70;72.00
69626;DHT22;56847;51.984;5.088;2022-11-20T06:23:46;1.80;71.90
69626;DHT22;56847;51.984;5.088;2022-11-20T06:26:26;1.80;72.00
69626;DHT22;56847;51.984;5.088;2022-11-20T06:28:55;1.70;72.00
69626;DHT22;56847;51.984;5.088;2022-11-20T06:31:30;1.70;72.10
69626;DHT22;56847;51.984;5.088;2022-11-20T06:34:06;1.80;72.20
69626;DHT22;56847;51.984;5.088;2022-11-20T06:36:37;1.80;72.20
69626;DHT22;56847;51.984;5.088;2022-11-20T06:39:09;1.80;72.30
69626;DHT22;56847;51.984;5.088;2022-11-20T06:41:36;1.80;72.30
69626;DHT22;56847;51.984;5.088;2022-11-20T06:44:05;1.80;72.20
69626;DHT22;56847;51.984;5.088;2022-11-20T06:46:35;1.80;72.20
69626;DHT22;56847;51.984;5.088;2022-11-20T06:49:03;1.80;72.20
69626;DHT22;56847;51.984;5.088;2022-11-20T06:51:30;1.80;72.30
69626;DHT22;56847;51.984;5.088;2022-11-20T06:53:58;1.90;72.30
69626;DHT22;56847;51.984;5.088;2022-11-20T06:56:28;1.90;72.40
69626;DHT22;56847;51.984;5.088;2022-11-20T06:58:55;1.90;72.40
69626;DHT22;56847;51.984;5.088;2022-11-20T07:01:23;1.90;72.40
69626;DHT22;56847;51.984;5.088;2022-11-20T07:03:51;1.90;72.30
69626;DHT22;56847;51.984;5.088;2022-11-20T07:06:21;1.90;72.30
69626;DHT22;56847;51.984;5.088;2022-11-20T07:08:50;1.90;72.30
69626;DHT22;56847;51.984;5.088;2022-11-20T07:11:21;1.90;72.40
69626;DHT22;56847;51.984;5.088;2022-11-20T07:13:49;1.90;72.50
69626;DHT22;56847;51.984;5.088;2022-11-20T07:16:16;1.90;72.40
69626;DHT22;56847;51.984;5.088;2022-11-20T07:18:43;1.90;72.50
69626;DHT22;56847;51.984;5.088;2022-11-20T07:21:16;1.90;72.60
69626;DHT22;56847;51.984;5.088;2022-11-20T07:23:49;1.90;72.70
69626;DHT22;56847;51.984;5.088;2022-11-20T07:26:19;1.90;72.90
69626;DHT22;56847;51.984;5.088;2022-11-20T07:28:57;2.00;73.00
69626;DHT22;56847;51.984;5.088;2022-11-20T07:31:24;2.00;73.10
69626;DHT22;56847;51.984;5.088;2022-11-20T07:33:52;2.10;73.20
69626;DHT22;56847;51.984;5.088;2022-11-20T07:36:19;2.10;73.30
69626;DHT22;56847;51.984;5.088;2022-11-20T07:38:49;2.20;73.40
69626;DHT22;56847;51.984;5.088;2022-11-20T07:41:37;2.30;73.50
69626;DHT22;56847;51.984;5.088;2022-11-20T07:44:55;2.40;73.50
69626;DHT22;56847;51.984;5.088;2022-11-20T07:48:09;2.50;73.60
69626;DHT22;56847;51.984;5.088;2022-11-20T07:53:52;2.70;73.40
69626;DHT22;56847;51.984;5.088;2022-11-20T07:56:41;2.80;73.30
69626;DHT22;56847;51.984;5.088;2022-11-20T07:59:14;2.80;73.10
69626;DHT22;56847;51.984;5.088;2022-11-20T08:01:49;2.90;73.40
69626;DHT22;56847;51.984;5.088;2022-11-20T08:04:25;3.00;73.10
69626;DHT22;56847;51.984;5.088;2022-11-20T08:07:06;3.00;73.40
69626;DHT22;56847;51.984;5.088;2022-11-20T08:09:33;3.00;73.40
69626;DHT22;56847;51.984;5.088;2022-11-20T08:12:21;3.10;73.30
69626;DHT22;56847;51.984;5.088;2022-11-20T08:15:07;3.10;73.20
69626;DHT22;56847;51.984;5.088;2022-11-20T08:17:45;3.20;73.20
69626;DHT22;56847;51.984;5.088;2022-11-20T08:20:53;3.20;73.20
69626;DHT22;56847;51.984;5.088;2022-11-20T08:23:28;3.20;73.20
69626;DHT22;56847;51.984;5.088;2022-11-20T08:26:05;3.30;73.00
69626;DHT22;56847;51.984;5.088;2022-11-20T08:28:45;3.30;72.90
69626;DHT22;56847;51.984;5.088;2022-11-20T08:35:04;3.40;72.90
69626;DHT22;56847;51.984;5.088;2022-11-20T08:37:48;3.40;72.70
69626;DHT22;56847;51.984;5.088;2022-11-20T08:40:31;3.50;72.80
69626;DHT22;56847;51.984;5.088;2022-11-20T08:43:56;3.50;72.70
69626;DHT22;56847;51.984;5.088;2022-11-20T08:47:10;3.50;72.80
69626;DHT22;56847;51.984;5.088;2022-11-20T08:49:56;3.60;72.80
69626;DHT22;56847;51.984;5.088;2022-11-20T08:52:32;3.60;72.70
69626;DHT22;56847;51.984;5.088;2022-11-20T08:55:09;3.70;72.70
69626;DHT22;56847;51.984;5.088;2022-11-20T08:57:38;3.70;72.60
69626;DHT22;56847;51.984;5.088;2022-11-20T09:00:10;3.70;72.70
69626;DHT22;56847;51.984;5.088;2022-11-20T09:02:51;3.80;72.60
69626;DHT22;56847;51.984;5.088;2022-11-20T09:05:28;3.90;72.50
69626;DHT22;56847;51.984;5.088;2022-11-20T09:08:06;3.90;72.30
69626;DHT22;56847;51.984;5.088;2022-11-20T09:14:11;3.90;72.40
69626;DHT22;56847;51.984;5.088;2022-11-20T10:44:32;5.60;71.20
69626;DHT22;56847;51.984;5.088;2022-11-20T10:47:22;5.60;71.30
69626;DHT22;56847;51.984;5.088;2022-11-20T10:49:55;5.60;71.30
69626;DHT22;56847;51.984;5.088;2022-11-20T10:57:56;5.60;71.10
69626;DHT22;56847;51.984;5.088;2022-11-20T11:00:25;5.60;71.10
69626;DHT22;56847;51.984;5.088;2022-11-20T11:02:54;5.60;71.00
69626;DHT22;56847;51.984;5.088;2022-11-20T11:05:36;5.60;71.10
69626;DHT22;56847;51.984;5.088;2022-11-20T11:11:38;5.60;71.20
69626;DHT22;56847;51.984;5.088;2022-11-20T11:14:16;5.60;71.20
69626;DHT22;56847;51.984;5.088;2022-11-20T11:16:53;5.50;71.30
69626;DHT22;56847;51.984;5.088;2022-11-20T11:19:21;5.60;71.60
69626;DHT22;56847;51.984;5.088;2022-11-20T11:21:53;5.60;71.60
69626;DHT22;56847;51.984;5.088;2022-11-20T11:24:23;5.70;71.90
69626;DHT22;56847;51.984;5.088;2022-11-20T11:27:14;5.80;71.90
69626;DHT22;56847;51.984;5.088;2022-11-20T11:29:46;5.80;71.90
69626;DHT22;56847;51.984;5.088;2022-11-20T11:32:23;5.90;72.00
69626;DHT22;56847;51.984;5.088;2022-11-20T11:35:04;6.00;71.80
69626;DHT22;56847;51.984;5.088;2022-11-20T11:37:42;6.00;71.80
69626;DHT22;56847;51.984;5.088;2022-11-20T11:40:11;6.10;72.00
69626;DHT22;56847;51.984;5.088;2022-11-20T11:42:56;6.10;72.00
69626;DHT22;56847;51.984;5.088;2022-11-20T11:45:24;6.10;72.10
69626;DHT22;56847;51.984;5.088;2022-11-20T11:47:56;6.20;72.00
69626;DHT22;56847;51.984;5.088;2022-11-20T11:50:28;6.30;72.20
69626;DHT22;56847;51.984;5.088;2022-11-20T11:53:07;6.30;72.10
69626;DHT22;56847;51.984;5.088;2022-11-20T11:55:58;6.30;72.10
69626;DHT22;56847;51.984;5.088;2022-11-20T11:58:44;6.40;72.20
69626;DHT22;56847;51.984;5.088;2022-11-20T12:01:50;6.40;72.10
69626;DHT22;56847;51.984;5.088;2022-11-20T12:04:44;6.40;72.20
69626;DHT22;56847;51.984;5.088;2022-11-20T12:07:22;6.40;72.20
69626;DHT22;56847;51.984;5.088;2022-11-20T12:13:09;6.40;72.40
69626;DHT22;56847;51.984;5.088;2022-11-20T12:15:45;6.40;72.40
69626;DHT22;56847;51.984;5.088;2022-11-20T12:18:21;6.30;72.50
69626;DHT22;56847;51.984;5.088;2022-11-20T12:27:26;6.20;73.10
69626;DHT22;56847;51.984;5.088;2022-11-20T12:30:04;6.10;73.20
69626;DHT22;56847;51.984;5.088;2022-11-20T12:33:07;6.10;73.30
69626;DHT22;56847;51.984;5.088;2022-11-20T12:36:05;6.20;73.50
69626;DHT22;56847;51.984;5.088;2022-11-20T12:39:07;6.20;73.60
69626;DHT22;56847;51.984;5.088;2022-11-20T12:41:51;6.20;73.70
69626;DHT22;56847;51.984;5.088;2022-11-20T12:53:59;6.40;74.10
69626;DHT22;56847;51.984;5.088;2022-11-20T12:56:50;6.50;74.10
69626;DHT22;56847;51.984;5.088;2022-11-20T13:02:38;6.50;74.20
69626;DHT22;56847;51.984;5.088;2022-11-20T13:07:41;6.50;74.10
69626;DHT22;56847;51.984;5.088;2022-11-20T13:10:38;6.40;74.10
69626;DHT22;56847;51.984;5.088;2022-11-20T13:18:42;6.40;74.50
69626;DHT22;56847;51.984;5.088;2022-11-20T13:22:02;6.40;74.40
69626;DHT22;56847;51.984;5.088;2022-11-20T13:24:26;6.40;74.60
69626;DHT22;56847;51.984;5.088;2022-11-20T13:29:31;6.40;74.70
69626;DHT22;56847;51.984;5.088;2022-11-20T13:34:56;6.40;74.80
69626;DHT22;56847;51.984;5.088;2022-11-20T13:43:00;6.30;74.90
69626;DHT22;56847;51.984;5.088;2022-11-20T13:45:30;6.30;75.00
69626;DHT22;56847;51.984;5.088;2022-11-20T13:48:03;6.30;74.90
69626;DHT22;56847;51.984;5.088;2022-11-20T13:56:11;6.20;75.70
69626;DHT22;56847;51.984;5.088;2022-11-20T14:01:34;6.20;75.60
69626;DHT22;56847;51.984;5.088;2022-11-20T14:04:08;6.20;75.90
69626;DHT22;56847;51.984;5.088;2022-11-20T14:06:43;6.20;75.90
69626;DHT22;56847;51.984;5.088;2022-11-20T14:09:13;6.20;75.90
69626;DHT22;56847;51.984;5.088;2022-11-20T14:11:51;6.20;76.10
69626;DHT22;56847;51.984;5.088;2022-11-20T14:14:23;6.20;76.10
69626;DHT22;56847;51.984;5.088;2022-11-20T14:16:53;6.20;76.30
69626;DHT22;56847;51.984;5.088;2022-11-20T14:19:31;6.20;76.10
69626;DHT22;56847;51.984;5.088;2022-11-20T14:25:00;6.20;76.20
69626;DHT22;56847;51.984;5.088;2022-11-20T14:27:27;6.20;76.20
69626;DHT22;56847;51.984;5.088;2022-11-20T14:29:55;6.20;76.60
69626;DHT22;56847;51.984;5.088;2022-11-20T14:32:25;6.20;76.50
69626;DHT22;56847;51.984;5.088;2022-11-20T14:34:54;6.20;76.50
69626;DHT22;56847;51.984;5.088;2022-11-20T14:37:24;6.20;76.60
69626;DHT22;56847;51.984;5.088;2022-11-20T14:39:54;6.20;76.60
69626;DHT22;56847;51.984;5.088;2022-11-20T14:42:26;6.10;76.60
69626;DHT22;56847;51.984;5.088;2022-11-20T14:44:58;6.10;76.80
69626;DHT22;56847;51.984;5.088;2022-11-20T14:47:30;6.10;76.80
69626;DHT22;56847;51.984;5.088;2022-11-20T14:49:58;6.10;77.00
69626;DHT22;56847;51.984;5.088;2022-11-20T14:52:31;6.10;77.20
69626;DHT22;56847;51.984;5.088;2022-11-20T14:54:59;6.10;77.30
69626;DHT22;56847;51.984;5.088;2022-11-20T14:57:35;6.00;77.50
69626;DHT22;56847;51.984;5.088;2022-11-20T15:02:42;6.00;77.80
69626;DHT22;56847;51.984;5.088;2022-11-20T15:05:10;6.00;78.30
69626;DHT22;56847;51.984;5.088;2022-11-20T15:07:43;6.00;78.20
69626;DHT22;56847;51.984;5.088;2022-11-20T15:10:34;6.00;78.40
69626;DHT22;56847;51.984;5.088;2022-11-20T15:13:12;6.00;78.40
69626;DHT22;56847;51.984;5.088;2022-11-20T15:15:50;6.00;78.60
69626;DHT22;56847;51.984;5.088;2022-11-20T15:18:21;6.00;78.80
69626;DHT22;56847;51.984;5.088;2022-11-20T15:20:50;6.00;79.20
69626;DHT22;56847;51.984;5.088;2022-11-20T15:23:18;6.00;79.40
69626;DHT22;56847;51.984;5.088;2022-11-20T15:25:46;6.00;79.70
69626;DHT22;56847;51.984;5.088;2022-11-20T15:28:18;6.00;79.60
69626;DHT22;56847;51.984;5.088;2022-11-20T15:30:46;6.00;79.80
69626;DHT22;56847;51.984;5.088;2022-11-20T15:33:14;6.10;80.00
69626;DHT22;56847;51.984;5.088;2022-11-20T15:35:42;6.10;80.10
69626;DHT22;56847;51.984;5.088;2022-11-20T15:38:09;6.10;80.50
69626;DHT22;56847;51.984;5.088;2022-11-20T15:40:40;6.10;80.30
69626;DHT22;56847;51.984;5.088;2022-11-20T15:43:07;6.10;80.50
69626;DHT22;56847;51.984;5.088;2022-11-20T15:45:50;6.10;80.30
69626;DHT22;56847;51.984;5.088;2022-11-20T15:48:24;6.20;80.30
69626;DHT22;56847;51.984;5.088;2022-11-20T15:51:02;6.10;80.50
69626;DHT22;56847;51.984;5.088;2022-11-20T15:53:31;6.10;80.60
69626;DHT22;56847;51.984;5.088;2022-11-20T15:55:58;6.10;80.80
69626;DHT22;56847;51.984;5.088;2022-11-20T15:58:25;6.20;80.70
69626;DHT22;56847;51.984;5.088;2022-11-20T16:00:53;6.20;80.90
69626;DHT22;56847;51.984;5.088;2022-11-20T16:03:20;6.20;80.70
69626;DHT22;56847;51.984;5.088;2022-11-20T16:05:47;6.20;80.80
69626;DHT22;56847;51.984;5.088;2022-11-20T16:08:15;6.20;80.90
69626;DHT22;56847;51.984;5.088;2022-11-20T16:10:42;6.20;81.20
69626;DHT22;56847;51.984;5.088;2022-11-20T16:13:17;6.20;81.10
69626;DHT22;56847;51.984;5.088;2022-11-20T16:16:17;6.20;81.30
69626;DHT22;56847;51.984;5.088;2022-11-20T16:18:45;6.20;81.30
69626;DHT22;56847;51.984;5.088;2022-11-20T16:21:12;6.20;81.50
69626;DHT22;56847;51.984;5.088;2022-11-20T16:23:42;6.20;81.70
69626;DHT22;56847;51.984;5.088;2022-11-20T16:26:10;6.20;81.80
69626;DHT22;56847;51.984;5.088;2022-11-20T16:28:37;6.20;81.80
69626;DHT22;56847;51.984;5.088;2022-11-20T16:31:10;6.30;81.90
69626;DHT22;56847;51.984;5.088;2022-11-20T16:33:38;6.30;81.80
69626;DHT22;56847;51.984;5.088;2022-11-20T16:36:13;6.30;82.10
69626;DHT22;56847;51.984;5.088;2022-11-20T16:38:44;6.40;82.00
69626;DHT22;56847;51.984;5.088;2022-11-20T16:41:11;6.40;82.00
69626;DHT22;56847;51.984;5.088;2022-11-20T16:43:49;6.40;81.90
69626;DHT22;56847;51.984;5.088;2022-11-20T16:46:20;6.40;81.90
69626;DHT22;56847;51.984;5.088;2022-11-20T16:48:59;6.40;82.00
69626;DHT22;56847;51.984;5.088;2022-11-20T16:51:32;6.40;82.10
69626;DHT22;56847;51.984;5.088;2022-11-20T16:54:01;6.40;82.20
69626;DHT22;56847;51.984;5.088;2022-11-20T16:56:28;6.40;82.20
69626;DHT22;56847;51.984;5.088;2022-11-20T16:58:57;6.50;82.20
69626;DHT22;56847;51.984;5.088;2022-11-20T17:01:26;6.50;82.40
69626;DHT22;56847;51.984;5.088;2022-11-20T17:04:03;6.50;82.40
69626;DHT22;56847;51.984;5.088;2022-11-20T17:06:35;6.60;82.30
69626;DHT22;56847;51.984;5.088;2022-11-20T17:09:03;6.60;82.30
69626;DHT22;56847;51.984;5.088;2022-11-20T17:11:31;6.70;82.20
69626;DHT22;56847;51.984;5.088;2022-11-20T17:13:59;6.70;82.00
69626;DHT22;56847;51.984;5.088;2022-11-20T17:16:26;6.70;82.00
69626;DHT22;56847;51.984;5.088;2022-11-20T17:18:57;6.70;82.00
69626;DHT22;56847;51.984;5.088;2022-11-20T17:21:29;6.70;81.90
69626;DHT22;56847;51.984;5.088;2022-11-20T17:23:59;6.80;81.70
69626;DHT22;56847;51.984;5.088;2022-11-20T17:26:28;6.70;81.70
69626;DHT22;56847;51.984;5.088;2022-11-20T17:29:07;6.80;81.70
69626;DHT22;56847;51.984;5.088;2022-11-20T17:31:36;6.70;81.80
69626;DHT22;56847;51.984;5.088;2022-11-20T17:34:13;6.80;81.80
69626;DHT22;56847;51.984;5.088;2022-11-20T17:36:44;6.80;81.90
69626;DHT22;56847;51.984;5.088;2022-11-20T17:39:15;6.80;81.80
69626;DHT22;56847;51.984;5.088;2022-11-20T17:41:44;6.80;81.80
69626;DHT22;56847;51.984;5.088;2022-11-20T17:44:12;6.80;81.90
69626;DHT22;56847;51.984;5.088;2022-11-20T17:46:39;6.80;81.90
69626;DHT22;56847;51.984;5.088;2022-11-20T17:49:06;6.80;82.00
69626;DHT22;56847;51.984;5.088;2022-11-20T17:51:33;6.80;82.10
69626;DHT22;56847;51.984;5.088;2022-11-20T17:54:03;6.90;82.10
69626;DHT22;56847;51.984;5.088;2022-11-20T17:56:32;6.90;82.00
69626;DHT22;56847;51.984;5.088;2022-11-20T17:59:21;6.90;81.80
69626;DHT22;56847;51.984;5.088;2022-11-20T18:01:49;6.90;81.80
69626;DHT22;56847;51.984;5.088;2022-11-20T18:04:16;6.90;81.70
69626;DHT22;56847;51.984;5.088;2022-11-20T18:06:46;7.00;81.80
69626;DHT22;56847;51.984;5.088;2022-11-20T18:09:13;7.00;81.70
69626;DHT22;56847;51.984;5.088;2022-11-20T18:11:41;7.00;81.70
69626;DHT22;56847;51.984;5.088;2022-11-20T18:14:15;7.00;81.70
69626;DHT22;56847;51.984;5.088;2022-11-20T18:17:13;7.00;81.60
69626;DHT22;56847;51.984;5.088;2022-11-20T18:19:46;7.00;81.60
69626;DHT22;56847;51.984;5.088;2022-11-20T18:22:34;7.00;81.60
69626;DHT22;56847;51.984;5.088;2022-11-20T18:25:01;7.00;81.70
69626;DHT22;56847;51.984;5.088;2022-11-20T18:27:28;7.00;81.60
69626;DHT22;56847;51.984;5.088;2022-11-20T18:29:56;7.00;81.70
69626;DHT22;56847;51.984;5.088;2022-11-20T18:32:23;6.90;81.80
69626;DHT22;56847;51.984;5.088;2022-11-20T18:34:50;6.90;81.70
69626;DHT22;56847;51.984;5.088;2022-11-20T18:37:17;7.00;81.70
69626;DHT22;56847;51.984;5.088;2022-11-20T18:39:48;7.00;81.70
69626;DHT22;56847;51.984;5.088;2022-11-20T18:42:16;7.00;81.70
69626;DHT22;56847;51.984;5.088;2022-11-20T18:45:02;7.00;81.60
69626;DHT22;56847;51.984;5.088;2022-11-20T18:47:33;7.00;81.60
69626;DHT22;56847;51.984;5.088;2022-11-20T18:50:04;7.00;81.70
69626;DHT22;56847;51.984;5.088;2022-11-20T18:52:36;7.00;81.50
69626;DHT22;56847;51.984;5.088;2022-11-20T18:55:05;7.00;81.50
69626;DHT22;56847;51.984;5.088;2022-11-20T18:57:32;7.00;81.50
69626;DHT22;56847;51.984;5.088;2022-11-20T19:00:00;7.00;81.50
69626;DHT22;56847;51.984;5.088;2022-11-20T19:02:35;7.00;81.60
69626;DHT22;56847;51.984;5.088;2022-11-20T19:05:11;7.00;81.50
69626;DHT22;56847;51.984;5.088;2022-11-20T19:07:39;7.00;81.50
69626;DHT22;56847;51.984;5.088;2022-11-20T19:10:07;7.00;81.50
69626;DHT22;56847;51.984;5.088;2022-11-20T19:12:34;7.00;81.40
69626;DHT22;56847;51.984;5.088;2022-11-20T19:15:02;7.00;81.50
69626;DHT22;56847;51.984;5.088;2022-11-20T19:17:32;7.00;81.40
69626;DHT22;56847;51.984;5.088;2022-11-20T19:20:00;7.00;81.40
69626;DHT22;56847;51.984;5.088;2022-11-20T19:22:27;7.00;81.40
69626;DHT22;56847;51.984;5.088;2022-11-20T19:24:54;7.00;81.40
69626;DHT22;56847;51.984;5.088;2022-11-20T19:27:21;7.00;81.40